KT5AL Weather Reports


Display with metric or nautical units.
time (UTC)temp
F
wind
direction
speed
MPH
gust
MPH
rain 1hr
in
rain 24hr
in
rain mn
in
humidity
%
barometer
mb
20210517092528 65 202 0.0 0.0 0.00 1.57 0.11 98 1010.0
20210517085505 66 202 3.0 5.0 0.00 1.49 0.03 96 1009.4
20210517084007 66 292 15.0 20.0 0.00 1.48 0.02 96 1009.0
20210517082002 68 270 19.0 22.0 0.00 1.46 0.00 96 1008.7
20210517075506 70 247 17.0 22.0 0.00 1.46 0.00 97 1007.0
20210517073003 70 247 12.0 15.0 0.00 1.46 0.00 96 1006.3
20210517072507 70 247 12.0 19.0 0.00 1.46 0.00 96 1006.3
20210517071505 70 247 14.0 18.0 0.00 1.46 0.00 96 1006.0
20210517071007 70 202 13.0 19.0 0.00 1.46 0.00 96 1006.0
20210517065507 70 247 22.0 27.0 0.00 1.46 0.00 96 1006.0
20210517065012 70 225 22.0 30.0 0.00 1.46 0.00 95 1006.0
20210517064006 70 270 17.0 25.0 0.00 1.46 0.00 94 1005.3
20210517063504 71 247 9.0 12.0 0.00 1.46 0.00 92 1005.3
20210517061507 70 247 21.0 28.0 0.00 1.46 0.00 97 1005.6
20210517061004 69 247 16.0 26.0 0.00 1.46 0.00 97 1005.6
20210517060506 69 247 12.0 17.0 0.00 1.46 0.00 97 1006.0
20210517055006 69 180 12.0 19.0 0.00 1.46 0.00 99 1006.0
20210517053007 69 135 17.0 31.0 0.00 1.46 0.00 100 1004.6
20210517052006 68 180 16.0 27.0 0.00 1.46 0.00 100 1005.6
20210517051503 68 157 14.0 29.0 0.00 1.46 0.00 100 1007.7
20210517051006 68 157 10.0 19.0 0.00 1.46 0.00 100 1007.7
20210517050504 68 157 6.0 9.0 0.00 1.46 0.00 100 1008.0
20210517045003 68 180 5.0 9.0 0.00 1.46 1.46 100 1008.3
20210517044506 68 180 4.0 8.0 0.00 1.46 1.46 100 1009.0
20210517044003 68 180 4.0 5.0 0.00 1.46 1.46 100 1009.0
20210517043506 68 180 5.0 10.0 0.00 1.46 1.46 100 1009.0
20210517043003 68 157 3.0 4.0 0.00 1.46 1.46 100 1009.0
20210517041006 67 157 5.0 9.0 0.00 1.46 1.46 100 1008.7
20210517040504 67 157 5.0 7.0 0.00 1.46 1.46 100 1009.0
20210517034007 67 135 6.0 9.0 0.00 1.45 1.45 96 1009.0
20210517031503 68 337 10.0 12.0 0.00 1.32 1.32 92 1010.0
20210517031006 68 315 9.0 10.0 0.00 1.32 1.32 93 1010.0
20210517030503 68 337 7.0 11.0 0.00 1.32 1.32 93 1009.4
20210517030007 69 360 6.0 7.0 0.00 1.32 1.32 94 1009.4
20210517025006 69 157 6.0 10.0 0.00 1.32 1.32 93 1008.7
20210517024504 69 157 8.0 16.0 0.00 1.32 1.32 93 1008.7
20210517021506 69 67 9.0 12.0 0.00 1.32 1.32 90 1009.0
20210517021040 70 67 10.0 14.0 0.00 1.32 1.32 96 1009.0
20210517014505 70 45 8.0 10.0 0.00 1.32 1.32 97 1008.7
20210517014002 70 67 9.0 10.0 0.00 1.32 1.32 97 1008.7
20210517013506 70 67 6.0 8.0 0.00 1.32 1.32 95 1008.0
20210517013004 70 112 8.0 10.0 0.00 1.32 1.32 94 1008.0
20210517012507 71 135 9.0 11.0 0.00 1.32 1.32 94 1007.7
20210517011504 71 112 8.0 10.0 0.00 1.32 1.32 92 1007.0
20210517011008 72 135 7.0 9.0 0.00 1.32 1.32 92 1007.0
20210517010006 73 157 7.0 11.0 0.00 1.32 1.32 91 1006.6
20210517005504 73 135 7.0 10.0 0.00 1.32 1.32 91 1006.6
20210517005409 74 157 6.0 11.0 0.00 1.32 1.32 91 1006.6
20210517004006 74 157 8.0 12.0 0.00 1.32 1.32 89 1006.6
20210517003004 74 180 4.0 5.0 0.00 1.32 1.32 89 1006.6
20210517002507 74 157 6.0 9.0 0.00 1.32 1.32 89 1006.6
20210517002005 74 157 5.0 8.0 0.00 1.32 1.32 89 1006.6
20210517001004 74 157 5.0 6.0 0.00 1.32 1.32 89 1006.6
20210517000506 74 135 5.0 7.0 0.00 1.32 1.32 89 1006.6
20210516234507 74 180 5.0 8.0 0.00 1.32 1.32 89 1006.6
20210516232504 75 180 6.0 10.0 0.00 1.32 1.32 86 1005.6
20210516232002 75 180 9.0 17.0 0.00 1.32 1.32 84 1005.6
20210516231505 76 135 12.0 18.0 0.00 1.32 1.32 84 1005.6
20210516231003 76 180 7.0 16.0 0.00 1.32 1.32 84 1005.6
20210516230514 76 157 9.0 14.0 0.00 1.32 1.32 84 1006.0
20210516225006 74 157 6.0 10.0 0.00 1.32 1.32 87 1006.0
20210516223506 76 157 10.0 16.0 0.00 1.32 1.32 87 1005.6
20210516222505 77 135 8.0 14.0 0.00 1.32 1.32 88 1006.0
20210516222003 77 135 12.0 21.0 0.00 1.32 1.32 88 1006.0
20210516220006 77 135 11.0 17.0 0.00 1.32 1.32 88 1006.0
20210516215005 77 157 7.0 13.0 0.00 1.32 1.32 91 1006.0
20210516214502 77 135 12.0 15.0 0.00 1.32 1.32 88 1006.0
20210516213502 76 157 11.0 16.0 0.00 1.32 1.32 91 1006.0
20210516213005 75 135 18.0 20.0 0.00 1.32 1.32 87 1006.0
20210516212503 76 112 17.0 22.0 0.00 1.32 1.32 91 1006.6
20210516211503 74 135 12.0 13.0 0.00 1.32 1.32 94 1007.0
20210516210011 73 135 12.0 20.0 0.00 1.32 1.32 95 1007.0
20210516205004 73 135 15.0 19.0 0.00 1.32 1.32 94 1007.3
20210516204507 73 112 13.0 16.0 0.00 1.32 1.32 95 1007.7
20210516204004 73 135 11.0 14.0 0.00 1.32 1.32 96 1007.7
20210516202506 72 112 11.0 13.0 0.00 1.32 1.32 99 1008.7
20210516201006 71 135 12.0 14.0 0.00 1.32 1.32 100 1009.0
20210516200503 71 157 7.0 14.0 0.00 1.32 1.32 100 1009.0
20210516194503 69 112 12.0 15.0 0.00 1.32 1.32 100 1009.4
20210516194007 69 112 14.0 18.0 0.00 1.32 1.32 100 1009.4
20210516192007 68 135 13.0 17.0 0.00 1.32 1.32 100 1010.0
20210516191006 67 135 13.0 18.0 0.00 1.32 1.32 100 1010.4
20210516190004 67 112 6.0 7.0 0.00 1.32 1.32 100 1010.7
20210516185507 66 292 0.0 0.0 0.00 1.31 1.31 100 1011.0
20210516183509 67 112 6.0 8.0 0.00 1.30 1.30 100 1010.7
20210516183004 67 112 8.0 10.0 0.00 1.26 1.26 100 1010.7
20210516180005 68 157 8.0 10.0 0.00 1.13 1.13 100 1010.7
20210516173505 68 157 5.0 9.0 0.00 1.11 1.11 100 1011.4
20210516173002 68 157 4.0 5.0 0.00 1.11 1.11 100 1011.4
20210516165506 68 135 9.0 12.0 0.00 1.10 1.10 100 1011.4
20210516165010 68 157 7.0 9.0 0.00 1.10 1.10 100 1011.4
20210516164006 68 157 6.0 10.0 0.00 1.10 1.10 100 1011.4
20210516162006 67 157 3.0 4.0 0.00 1.10 1.10 100 1011.7
20210516161504 67 157 4.0 5.0 0.00 1.10 1.10 100 1011.7
20210516161006 67 157 4.0 9.0 0.00 1.10 1.10 100 1011.7
20210516160504 68 157 4.0 6.0 0.00 1.09 1.09 100 1011.7
20210516154504 68 157 3.0 6.0 0.00 1.08 1.08 100 1012.1
20210516154008 67 157 3.0 6.0 0.00 1.08 1.08 100 1012.1
20210516153504 67 180 3.0 4.0 0.00 1.08 1.08 100 1012.1
20210516152510 67 157 5.0 10.0 0.00 1.08 1.08 100 1012.1
20210516150003 67 157 7.0 10.0 0.00 0.92 0.92 100 1012.1
20210516144510 67 202 4.0 7.0 0.00 0.62 0.62 100 1012.1
20210516143506 67 180 7.0 13.0 0.00 0.56 0.56 100 1012.1
20210516143004 67 135 5.0 8.0 0.00 0.54 0.54 100 1012.1
20210516142507 67 157 4.0 8.0 0.00 0.54 0.54 100 1012.1
20210516142004 67 157 6.0 11.0 0.00 0.40 0.40 100 1012.1
20210516141509 67 135 6.0 10.0 0.00 0.39 0.39 100 1012.1
20210516135504 66 157 9.0 14.0 0.00 0.26 0.26 100 1012.1
20210516133504 66 157 13.0 16.0 0.00 0.25 0.25 100 1012.4
20210516133007 66 135 10.0 14.0 0.00 0.23 0.23 100 1012.4
20210516132504 66 112 13.0 17.0 0.00 0.22 0.22 100 1012.4
20210516132007 66 135 10.0 14.0 0.00 0.19 0.19 100 1012.4
20210516131505 66 135 12.0 15.0 0.00 0.17 0.17 100 1012.4
20210516131003 66 135 10.0 13.0 0.00 0.17 0.17 100 1012.4
20210516130007 66 135 12.0 17.0 0.00 0.16 0.16 100 1012.1
20210516125505 66 135 11.0 13.0 0.00 0.16 0.16 100 1012.1
20210516124004 66 135 9.0 12.0 0.00 0.16 0.16 100 1012.1
20210516123507 66 135 8.0 11.0 0.00 0.16 0.16 100 1012.1
20210516123003 66 112 9.0 10.0 0.00 0.16 0.16 99 1012.1
20210516122007 66 135 8.0 10.0 0.00 0.12 0.12 99 1012.1
20210516121005 66 135 10.0 11.0 0.00 0.11 0.11 98 1012.1
20210516120502 66 112 10.0 12.0 0.00 0.09 0.09 97 1012.1
20210516120006 66 135 9.0 10.0 0.00 0.08 0.08 96 1012.1
20210516115004 66 157 8.0 10.0 0.00 0.04 0.04 96 1012.1
20210516114502 66 135 8.0 10.0 0.00 0.04 0.04 95 1012.1
20210516114006 67 157 7.0 9.0 0.00 0.04 0.04 95 1012.1
20210516113534 67 135 9.0 10.0 0.00 0.03 0.03 95 1011.7
20210516112506 67 135 7.0 9.0 0.00 0.02 0.02 94 1012.1
20210516111505 67 157 4.0 6.0 0.00 0.02 0.02 94 1012.1
20210516111003 67 157 2.0 5.0 0.00 0.01 0.01 93 1012.1
20210516110007 68 157 3.0 4.0 0.00 0.00 0.00 93 1012.1
20210516105503 68 135 3.0 4.0 0.00 0.00 0.00 93 1012.1
20210516105007 68 157 4.0 5.0 0.00 0.00 0.00 93 1012.1
20210516104505 68 157 3.0 4.0 0.00 0.00 0.00 93 1012.1
20210516103005 68 157 4.0 7.0 0.00 0.00 0.00 93 1011.7
20210516102502 68 157 9.0 11.0 0.00 0.00 0.00 93 1012.1
20210516102006 68 135 6.0 10.0 0.00 0.00 0.00 93 1012.1
20210516101510 68 180 4.0 6.0 0.00 0.00 0.00 93 1012.1
20210516100506 68 157 6.0 9.0 0.00 0.00 0.00 92 1012.1
20210516094507 69 157 7.0 10.0 0.00 0.00 0.00 91 1011.7